createdAt,value
2018-11-29T00:01:16.608Z,5.90
2018-11-29T00:03:47.050Z,6.01
2018-11-29T00:06:17.423Z,6.04
2018-11-29T00:08:47.543Z,6.03
2018-11-29T00:11:17.599Z,6.14
2018-11-29T00:13:48.074Z,6.15
2018-11-29T00:16:18.087Z,6.17
2018-11-29T00:18:48.419Z,6.28
2018-11-29T00:21:18.590Z,6.02
2018-11-29T00:23:48.604Z,6.12
2018-11-29T00:26:19.159Z,6.14
2018-11-29T00:28:49.083Z,6.26
2018-11-29T00:31:19.114Z,6.22
2018-11-29T00:33:55.735Z,6.15
2018-11-29T00:36:25.679Z,6.19
2018-11-29T00:38:55.526Z,6.25
2018-11-29T00:41:25.852Z,6.13
2018-11-29T00:43:56.007Z,6.21
2018-11-29T00:46:26.229Z,6.23
2018-11-29T00:48:55.932Z,6.31
2018-11-29T00:51:25.866Z,6.30
2018-11-29T00:53:55.804Z,6.33
2018-11-29T00:56:25.700Z,6.32
2018-11-29T00:58:55.470Z,6.18
2018-11-29T01:01:25.515Z,6.25
2018-11-29T01:03:55.309Z,6.34
2018-11-29T01:06:25.270Z,6.31
2018-11-29T01:08:56.372Z,6.28
2018-11-29T01:11:26.382Z,6.29
2018-11-29T01:13:56.167Z,6.47
2018-11-29T01:16:26.158Z,6.36
2018-11-29T01:18:55.960Z,6.45
2018-11-29T01:21:26.097Z,6.33
2018-11-29T01:23:55.794Z,6.34
2018-11-29T01:26:25.650Z,6.33
2018-11-29T01:28:56.327Z,6.41
2018-11-29T01:31:26.961Z,6.44
2018-11-29T01:33:56.758Z,6.43
2018-11-29T01:36:26.832Z,6.39
2018-11-29T01:38:57.697Z,6.56
2018-11-29T01:41:27.647Z,6.55
2018-11-29T01:43:57.367Z,6.59
2018-11-29T01:46:27.107Z,6.55
2018-11-29T01:48:57.109Z,6.66
2018-11-29T01:51:27.228Z,6.55
2018-11-29T01:53:57.830Z,6.56
2018-11-29T01:56:27.659Z,6.53
2018-11-29T01:58:58.168Z,6.51
2018-11-29T02:01:28.093Z,6.61
2018-11-29T02:03:57.968Z,6.56
2018-11-29T02:06:27.949Z,6.57
2018-11-29T02:08:59.394Z,6.45
2018-11-29T02:11:30.228Z,6.39
2018-11-29T02:13:59.968Z,6.39
2018-11-29T02:16:29.955Z,6.22
2018-11-29T02:19:00.184Z,6.42
2018-11-29T02:21:30.772Z,6.14
2018-11-29T02:24:01.176Z,6.23
2018-11-29T02:26:31.125Z,6.20
2018-11-29T02:29:01.245Z,6.25
2018-11-29T02:31:38.871Z,6.21
2018-11-29T02:34:08.942Z,6.36
2018-11-29T02:36:38.667Z,6.22
2018-11-29T02:39:10.038Z,6.28
2018-11-29T02:41:39.980Z,6.33
2018-11-29T02:44:09.952Z,6.31
2018-11-29T02:46:39.723Z,6.31
2018-11-29T02:49:09.447Z,6.51
2018-11-29T02:51:39.249Z,6.62
2018-11-29T02:54:09.470Z,6.68
2018-11-29T02:56:39.280Z,6.74
2018-11-29T02:59:09.111Z,6.75
2018-11-29T03:01:39.078Z,6.78
2018-11-29T03:04:08.819Z,6.83
2018-11-29T03:06:39.515Z,6.94
2018-11-29T03:09:09.608Z,6.94
2018-11-29T03:11:42.547Z,6.96
2018-11-29T03:14:12.333Z,7.01
2018-11-29T03:16:42.074Z,6.92
2018-11-29T03:19:12.128Z,6.98
2018-11-29T03:21:41.850Z,7.01
2018-11-29T03:24:11.633Z,6.94
2018-11-29T03:26:41.393Z,7.03
2018-11-29T03:29:11.235Z,6.99
2018-11-29T03:31:41.351Z,6.95
2018-11-29T03:34:11.053Z,6.93
2018-11-29T03:36:40.771Z,7.01
2018-11-29T03:39:10.899Z,6.96
2018-11-29T03:41:41.087Z,7.05
2018-11-29T03:44:11.323Z,6.94
2018-11-29T03:46:41.357Z,7.05
2018-11-29T03:49:13.568Z,6.94
2018-11-29T03:51:43.500Z,6.93
2018-11-29T03:54:13.254Z,7.12
2018-11-29T03:56:43.107Z,6.88
2018-11-29T03:59:13.128Z,7.04
2018-11-29T04:01:42.838Z,6.95
2018-11-29T04:04:12.804Z,6.91
2018-11-29T04:06:42.507Z,6.94
2018-11-29T04:09:12.412Z,6.93
2018-11-29T04:11:42.518Z,6.97
2018-11-29T04:14:12.262Z,7.10
2018-11-29T04:16:42.681Z,7.02
2018-11-29T04:19:12.506Z,7.18
2018-11-29T04:21:43.041Z,7.23
2018-11-29T04:24:12.709Z,7.17
2018-11-29T04:26:42.718Z,7.10
2018-11-29T04:29:12.526Z,7.16
2018-11-29T04:31:42.633Z,7.36
2018-11-29T04:34:13.012Z,7.25
2018-11-29T04:36:43.276Z,7.23
2018-11-29T04:39:13.458Z,7.16
2018-11-29T04:41:43.189Z,7.17
2018-11-29T04:44:12.906Z,7.19
2018-11-29T04:46:47.857Z,7.16
2018-11-29T04:49:18.090Z,7.15
2018-11-29T04:51:48.503Z,7.20
2018-11-29T04:54:18.611Z,7.17
2018-11-29T04:56:48.740Z,7.36
2018-11-29T04:59:18.888Z,7.18
2018-11-29T05:01:49.721Z,7.15
2018-11-29T05:04:20.036Z,7.07
2018-11-29T05:06:49.786Z,7.09
2018-11-29T05:09:19.698Z,7.09
2018-11-29T05:11:49.525Z,7.12
2018-11-29T05:14:19.383Z,7.08
2018-11-29T05:16:49.261Z,7.14
2018-11-29T05:19:19.773Z,6.99
2018-11-29T05:21:49.748Z,7.04
2018-11-29T05:24:19.692Z,6.96
2018-11-29T05:26:49.431Z,6.93
2018-11-29T05:29:20.001Z,7.00
2018-11-29T05:31:50.367Z,6.94
2018-11-29T05:34:20.102Z,6.95
2018-11-29T05:36:49.880Z,6.94
2018-11-29T05:39:20.312Z,7.11
2018-11-29T05:41:50.366Z,7.05
2018-11-29T05:44:20.675Z,7.12
2018-11-29T05:46:50.487Z,7.00
2018-11-29T05:49:20.333Z,7.07
2018-11-29T05:51:50.177Z,7.11
2018-11-29T05:54:20.596Z,7.16
2018-11-29T05:56:50.506Z,7.15
2018-11-29T05:59:20.811Z,7.23
2018-11-29T06:01:51.906Z,7.32
2018-11-29T06:04:21.614Z,7.20
2018-11-29T06:06:51.367Z,7.27
2018-11-29T06:09:21.678Z,7.23
2018-11-29T06:11:51.581Z,7.24
2018-11-29T06:14:21.512Z,7.24
2018-11-29T06:16:51.591Z,7.18
2018-11-29T06:19:21.637Z,7.35
2018-11-29T06:21:51.631Z,7.22
2018-11-29T06:24:21.452Z,7.28
2018-11-29T06:26:51.241Z,7.37
2018-11-29T06:29:21.055Z,7.32
2018-11-29T06:31:51.653Z,7.14
2018-11-29T06:34:21.581Z,7.35
2018-11-29T06:36:51.891Z,7.18
2018-11-29T06:39:22.127Z,7.30
2018-11-29T06:41:52.081Z,7.40
2018-11-29T06:44:22.037Z,7.32
2018-11-29T06:46:51.846Z,7.20
2018-11-29T06:49:21.671Z,7.18
2018-11-29T06:51:51.670Z,7.17
2018-11-29T06:54:21.555Z,7.10
2018-11-29T06:56:51.361Z,7.22
2018-11-29T06:59:21.487Z,7.33
2018-11-29T07:01:51.469Z,7.16
2018-11-29T07:04:21.308Z,7.37
2018-11-29T07:06:51.313Z,7.37
2018-11-29T07:09:21.090Z,7.30
2018-11-29T07:11:51.627Z,7.31
2018-11-29T07:14:21.446Z,7.29
2018-11-29T07:16:51.532Z,7.29
2018-11-29T07:19:21.463Z,7.35
2018-11-29T07:21:53.846Z,7.33
2018-11-29T07:24:24.683Z,7.36
2018-11-29T07:26:54.661Z,7.32
2018-11-29T07:29:24.619Z,7.39
2018-11-29T07:31:54.482Z,7.38
2018-11-29T07:34:24.365Z,7.29
2018-11-29T07:36:54.449Z,7.44
2018-11-29T07:39:25.025Z,7.46
2018-11-29T07:41:54.981Z,7.23
2018-11-29T07:44:24.729Z,7.37
2018-11-29T07:46:54.702Z,7.26
2018-11-29T07:49:24.520Z,7.43
2018-11-29T07:51:54.392Z,7.30
2018-11-29T07:54:24.166Z,7.30
2018-11-29T07:56:54.372Z,7.24
2018-11-29T07:59:24.215Z,7.21
2018-11-29T08:01:54.691Z,7.25
2018-11-29T08:04:24.621Z,7.26
2018-11-29T08:06:55.138Z,7.23
2018-11-29T08:09:25.183Z,7.40
2018-11-29T08:11:55.365Z,7.41
2018-11-29T08:14:25.171Z,7.36
2018-11-29T08:16:55.276Z,7.36
2018-11-29T08:19:25.146Z,7.38
2018-11-29T08:21:55.320Z,7.31
2018-11-29T08:24:25.359Z,7.33
2018-11-29T08:26:56.432Z,7.43
2018-11-29T08:29:26.244Z,7.43
2018-11-29T08:31:57.151Z,7.55
2018-11-29T08:34:28.236Z,7.39
2018-11-29T08:36:58.264Z,7.41
2018-11-29T08:39:28.607Z,7.37
2018-11-29T08:41:58.417Z,7.51
2018-11-29T08:44:28.214Z,7.53
2018-11-29T08:46:58.195Z,7.44
2018-11-29T08:49:28.085Z,7.41
2018-11-29T08:51:58.242Z,7.45
2018-11-29T08:54:28.080Z,7.41
2018-11-29T08:56:58.202Z,7.58
2018-11-29T08:59:28.219Z,7.56
2018-11-29T09:01:58.467Z,7.55
2018-11-29T09:04:28.882Z,7.40
2018-11-29T09:06:59.276Z,7.60
2018-11-29T09:09:29.143Z,7.74
2018-11-29T09:11:59.496Z,7.62
2018-11-29T09:14:29.336Z,7.62
2018-11-29T09:16:59.699Z,7.80
2018-11-29T09:19:29.606Z,7.80
2018-11-29T09:21:59.905Z,7.64
2018-11-29T09:24:29.839Z,7.81
2018-11-29T09:27:00.502Z,7.80
2018-11-29T09:29:30.591Z,8.13
2018-11-29T09:32:01.311Z,8.11
2018-11-29T09:34:31.235Z,7.89
2018-11-29T09:37:01.258Z,7.93
2018-11-29T09:39:31.144Z,8.20
2018-11-29T09:42:02.953Z,8.07
2018-11-29T09:44:31.470Z,8.00
2018-11-29T09:47:01.711Z,7.94
2018-11-29T09:49:31.722Z,8.00
2018-11-29T09:52:02.176Z,7.91
2018-11-29T09:54:32.000Z,7.93
2018-11-29T09:57:02.038Z,8.12
2018-11-29T09:59:32.607Z,7.97
2018-11-29T10:02:02.959Z,8.26
2018-11-29T10:04:32.700Z,8.14
2018-11-29T10:07:03.236Z,8.26
2018-11-29T10:09:33.032Z,8.19
2018-11-29T10:12:03.367Z,8.49
2018-11-29T10:14:33.539Z,8.33
2018-11-29T10:17:04.565Z,8.40
2018-11-29T10:19:34.363Z,8.46
2018-11-29T10:22:04.646Z,8.50
2018-11-29T10:24:34.416Z,8.56
2018-11-29T10:27:04.884Z,8.15
2018-11-29T10:29:35.125Z,8.43
2018-11-29T10:32:05.481Z,8.48
2018-11-29T10:34:35.342Z,8.50
2018-11-29T10:37:05.312Z,8.51
2018-11-29T10:39:35.336Z,8.76
2018-11-29T10:42:05.320Z,8.80
2018-11-29T10:44:35.115Z,8.54
2018-11-29T10:47:05.119Z,8.49
2018-11-29T10:49:35.012Z,8.75
2018-11-29T10:52:05.187Z,8.55
2018-11-29T10:54:35.003Z,8.66
2018-11-29T10:57:05.404Z,8.92
2018-11-29T10:59:35.741Z,8.64
2018-11-29T11:02:10.951Z,8.85
2018-11-29T11:04:40.904Z,8.86
2018-11-29T11:07:11.140Z,8.80
2018-11-29T11:09:41.164Z,8.72
2018-11-29T11:12:10.945Z,8.62
2018-11-29T11:14:40.716Z,8.91
2018-11-29T11:17:10.464Z,8.72
2018-11-29T11:19:40.220Z,8.82
2018-11-29T11:22:10.264Z,8.50
2018-11-29T11:24:40.026Z,8.70
2018-11-29T11:27:09.850Z,8.74
2018-11-29T11:29:40.872Z,8.69
2018-11-29T11:32:10.775Z,8.66
2018-11-29T11:34:40.531Z,8.88
2018-11-29T11:37:10.733Z,8.75
2018-11-29T11:39:40.629Z,8.80
2018-11-29T11:42:10.790Z,8.89
2018-11-29T11:44:41.192Z,9.01
2018-11-29T11:47:10.961Z,8.82
2018-11-29T11:49:40.733Z,8.92
2018-11-29T11:52:10.907Z,9.04
2018-11-29T11:54:40.596Z,9.08
2018-11-29T11:57:12.713Z,8.87
2018-11-29T11:59:42.485Z,8.84
2018-11-29T12:02:12.486Z,8.94
2018-11-29T12:04:42.363Z,9.06
2018-11-29T12:07:12.477Z,9.22
2018-11-29T12:09:42.247Z,8.95
2018-11-29T12:12:12.960Z,9.20
2018-11-29T12:14:43.370Z,8.95
2018-11-29T12:17:13.620Z,9.25
2018-11-29T12:19:43.489Z,9.23
2018-11-29T12:22:13.560Z,9.30
2018-11-29T12:24:43.413Z,9.34
2018-11-29T12:27:13.666Z,9.35
2018-11-29T12:29:43.574Z,9.36
2018-11-29T12:32:13.839Z,9.45
2018-11-29T12:34:43.686Z,9.12
2018-11-29T12:37:13.935Z,9.17
2018-11-29T12:39:43.698Z,9.10
2018-11-29T12:42:13.722Z,8.96
2018-11-29T12:44:43.599Z,9.22
2018-11-29T12:47:13.835Z,8.98
2018-11-29T12:49:43.799Z,9.20
2018-11-29T12:52:13.793Z,9.27
2018-11-29T12:54:43.655Z,9.10
2018-11-29T12:57:13.914Z,9.10
2018-11-29T12:59:43.775Z,9.33
2018-11-29T13:02:14.639Z,9.25
2018-11-29T13:04:44.427Z,9.29
2018-11-29T13:07:14.795Z,9.31
2018-11-29T13:09:44.856Z,9.28
2018-11-29T13:12:16.309Z,9.18
2018-11-29T13:14:46.239Z,9.32
2018-11-29T13:17:16.463Z,9.36
2018-11-29T13:19:46.454Z,9.46
2018-11-29T13:22:17.030Z,9.40
2018-11-29T13:24:47.098Z,9.37
2018-11-29T13:27:17.247Z,9.43
2018-11-29T13:29:47.383Z,9.33
2018-11-29T13:32:17.664Z,9.26
2018-11-29T13:34:47.818Z,9.28
2018-11-29T13:37:18.518Z,9.24
2018-11-29T13:39:48.500Z,9.23
2018-11-29T13:42:19.778Z,9.27
2018-11-29T13:44:49.964Z,9.17
2018-11-29T13:47:20.719Z,9.21
2018-11-29T13:49:50.819Z,9.13
2018-11-29T13:52:20.799Z,9.12
2018-11-29T13:54:50.653Z,9.04
2018-11-29T13:57:20.910Z,9.08
2018-11-29T13:59:50.995Z,9.01
2018-11-29T14:02:21.938Z,8.97
2018-11-29T14:04:52.079Z,8.79
2018-11-29T14:07:22.416Z,8.86
2018-11-29T14:09:52.350Z,8.75
2018-11-29T14:12:22.137Z,8.74
2018-11-29T14:14:52.003Z,8.78
2018-11-29T14:17:22.891Z,8.61
2018-11-29T14:19:53.319Z,8.69
2018-11-29T14:22:23.238Z,8.66
2018-11-29T14:24:53.186Z,8.68
2018-11-29T14:27:23.214Z,8.66
2018-11-29T14:29:53.235Z,8.65
2018-11-29T14:32:23.392Z,8.66
2018-11-29T14:34:53.775Z,8.74
2018-11-29T14:37:24.843Z,8.61
2018-11-29T14:39:55.014Z,8.66
2018-11-29T14:42:24.933Z,8.78
2018-11-29T14:44:55.398Z,8.74
2018-11-29T14:47:26.199Z,8.64
2018-11-29T14:49:56.666Z,8.56
2018-11-29T14:52:26.744Z,8.70
2018-11-29T14:54:56.690Z,8.68
2018-11-29T14:57:26.798Z,8.60
2018-11-29T14:59:57.533Z,8.71
2018-11-29T15:02:27.865Z,8.66
2018-11-29T15:04:58.692Z,8.71
2018-11-29T15:07:28.582Z,8.62
2018-11-29T15:09:58.469Z,8.63
2018-11-29T15:12:28.684Z,8.62
2018-11-29T15:14:58.448Z,8.47
2018-11-29T15:17:28.302Z,8.41
2018-11-29T15:19:58.138Z,8.44
2018-11-29T15:22:27.990Z,8.48
2018-11-29T15:24:57.818Z,8.50
2018-11-29T15:27:28.577Z,8.40
2018-11-29T15:29:58.442Z,8.51
2018-11-29T15:32:28.316Z,8.64
2018-11-29T15:34:58.137Z,8.67
2018-11-29T15:37:28.303Z,8.68
2018-11-29T15:39:58.147Z,8.79
2018-11-29T15:42:28.539Z,8.77
2018-11-29T15:44:58.432Z,8.81
2018-11-29T15:47:28.691Z,8.98
2018-11-29T15:49:58.947Z,8.85
2018-11-29T15:52:29.130Z,8.67
2018-11-29T15:54:58.942Z,8.85
2018-11-29T15:57:34.682Z,8.87
2018-11-29T16:00:00.284Z,8.79
2018-11-29T16:02:30.135Z,8.63
2018-11-29T16:05:00.036Z,8.42
2018-11-29T16:07:30.275Z,8.50
2018-11-29T16:10:00.109Z,8.45
2018-11-29T16:12:30.155Z,8.38
2018-11-29T16:15:00.072Z,8.35
2018-11-29T16:17:30.653Z,8.43
2018-11-29T16:20:00.745Z,8.31
2018-11-29T16:22:30.947Z,8.35
2018-11-29T16:25:01.041Z,8.44
2018-11-29T16:27:31.029Z,8.42
2018-11-29T16:30:01.548Z,8.38
2018-11-29T16:32:31.745Z,8.45
2018-11-29T16:35:01.594Z,8.48
2018-11-29T16:37:32.028Z,8.43
2018-11-29T16:40:01.955Z,8.47
2018-11-29T16:42:32.195Z,8.52
2018-11-29T16:45:02.063Z,8.60
2018-11-29T16:47:32.183Z,8.71
2018-11-29T16:50:01.911Z,8.74
2018-11-29T16:52:32.383Z,8.67
2018-11-29T16:55:02.371Z,8.56
2018-11-29T16:57:32.558Z,8.68
2018-11-29T17:00:02.239Z,8.45
2018-11-29T17:02:32.437Z,8.46
2018-11-29T17:05:02.297Z,8.38
2018-11-29T17:07:32.576Z,8.41
2018-11-29T17:10:02.567Z,8.39
2018-11-29T17:12:32.859Z,8.26
2018-11-29T17:15:02.684Z,8.21
2018-11-29T17:17:32.939Z,8.17
2018-11-29T17:20:03.286Z,8.27
2018-11-29T17:22:33.766Z,8.37
2018-11-29T17:25:03.865Z,8.28
2018-11-29T17:27:34.333Z,8.39
2018-11-29T17:30:04.326Z,8.57
2018-11-29T17:32:34.716Z,8.57
2018-11-29T17:35:04.743Z,8.45
2018-11-29T17:37:35.051Z,8.39
2018-11-29T17:40:07.377Z,8.33
2018-11-29T17:42:37.630Z,8.44
2018-11-29T17:45:11.887Z,8.42
2018-11-29T17:47:43.486Z,8.40
2018-11-29T17:50:25.392Z,8.42
2018-11-29T17:52:55.214Z,8.37
2018-11-29T17:55:25.267Z,8.41
2018-11-29T17:57:55.081Z,8.44
2018-11-29T18:00:27.897Z,8.39
2018-11-29T18:02:58.342Z,8.49
2018-11-29T18:05:28.186Z,8.38
2018-11-29T18:07:58.151Z,8.40
2018-11-29T18:10:32.403Z,8.40
2018-11-29T18:13:19.028Z,8.36
2018-11-29T18:15:48.774Z,8.46
2018-11-29T18:18:18.826Z,8.43
2018-11-29T18:20:48.846Z,8.46
2018-11-29T18:23:18.835Z,8.40
2018-11-29T18:25:48.763Z,8.56
2018-11-29T18:28:18.663Z,8.58
2018-11-29T18:30:48.591Z,8.55
2018-11-29T18:33:18.587Z,8.61
2018-11-29T18:35:49.505Z,8.70
2018-11-29T18:38:19.378Z,8.61
2018-11-29T18:40:49.234Z,8.83
2018-11-29T18:43:19.138Z,8.83
2018-11-29T18:45:49.088Z,8.85
2018-11-29T18:48:19.418Z,8.82
2018-11-29T18:50:49.456Z,8.94
2018-11-29T18:53:20.082Z,8.85
2018-11-29T18:55:50.241Z,8.92
2018-11-29T18:58:20.411Z,8.75
2018-11-29T19:00:50.589Z,8.79
2018-11-29T19:03:21.270Z,8.79
2018-11-29T19:05:52.029Z,8.79
2018-11-29T19:08:22.197Z,8.84
2018-11-29T19:10:52.262Z,8.82
2018-11-29T19:13:22.417Z,8.90
2018-11-29T19:15:53.342Z,8.88
2018-11-29T19:18:23.346Z,8.86
2018-11-29T19:20:53.678Z,8.84
2018-11-29T19:23:23.524Z,8.85
2018-11-29T19:25:54.042Z,8.82
2018-11-29T19:28:24.799Z,8.89
2018-11-29T19:30:54.821Z,8.91
2018-11-29T19:33:27.017Z,8.94
2018-11-29T19:35:57.519Z,9.02
2018-11-29T19:38:28.112Z,9.05
2018-11-29T19:40:58.156Z,8.96
2018-11-29T19:43:27.930Z,9.02
2018-11-29T19:45:57.841Z,9.08
2018-11-29T19:48:27.957Z,8.88
2018-11-29T19:50:58.220Z,8.74
2018-11-29T19:53:28.520Z,8.85
2018-11-29T19:56:01.617Z,8.73
2018-11-29T19:58:32.214Z,8.82
2018-11-29T20:01:02.213Z,8.62
2018-11-29T20:03:32.388Z,8.60
2018-11-29T20:06:02.310Z,8.60
2018-11-29T20:08:32.532Z,8.64
2018-11-29T20:11:02.551Z,8.56
2018-11-29T20:13:32.586Z,8.51
2018-11-29T20:16:02.820Z,8.55
2018-11-29T20:18:32.818Z,8.49
2018-11-29T20:21:03.098Z,8.56
2018-11-29T20:23:33.247Z,8.58
2018-11-29T20:26:03.479Z,8.61
2018-11-29T20:28:34.304Z,8.57
2018-11-29T20:31:04.626Z,8.50
2018-11-29T20:33:34.882Z,8.42
2018-11-29T20:36:05.018Z,8.29
2018-11-29T20:38:35.189Z,8.29
2018-11-29T20:41:05.648Z,8.32
2018-11-29T20:43:36.404Z,8.22
2018-11-29T20:46:06.728Z,8.28
2018-11-29T20:48:37.330Z,8.26
2018-11-29T20:51:07.756Z,8.29
2018-11-29T20:53:40.437Z,8.26
2018-11-29T20:56:15.280Z,8.28
2018-11-29T20:58:45.541Z,8.25
2018-11-29T21:01:15.823Z,8.24
2018-11-29T21:03:46.257Z,8.36
2018-11-29T21:06:16.299Z,8.29
2018-11-29T21:08:46.502Z,8.31
2018-11-29T21:11:16.801Z,8.27
2018-11-29T21:13:46.894Z,8.27
2018-11-29T21:16:17.362Z,8.19
2018-11-29T21:18:47.642Z,8.16
2018-11-29T21:21:17.655Z,8.08
2018-11-29T21:23:47.716Z,8.08
2018-11-29T21:26:17.964Z,8.17
2018-11-29T21:28:48.514Z,8.25
2018-11-29T21:31:18.870Z,8.32
2018-11-29T21:33:49.185Z,8.44
2018-11-29T21:36:19.249Z,8.44
2018-11-29T21:38:49.864Z,8.42
2018-11-29T21:41:20.751Z,8.45
2018-11-29T21:43:51.219Z,8.62
2018-11-29T21:46:21.833Z,8.66
2018-11-29T21:48:52.563Z,8.65
2018-11-29T21:51:22.883Z,8.67
2018-11-29T21:53:53.569Z,8.66
2018-11-29T21:56:24.143Z,8.71
2018-11-29T21:58:54.704Z,8.64
2018-11-29T22:01:25.140Z,8.60
2018-11-29T22:03:55.386Z,8.65
2018-11-29T22:06:26.102Z,8.71
2018-11-29T22:08:56.379Z,8.69
2018-11-29T22:11:26.668Z,8.64
2018-11-29T22:13:56.646Z,8.68
2018-11-29T22:16:26.960Z,8.67
2018-11-29T22:18:56.909Z,8.64
2018-11-29T22:21:26.967Z,8.76
2018-11-29T22:23:57.099Z,8.76
2018-11-29T22:26:27.634Z,8.87
2018-11-29T22:29:00.677Z,8.77
2018-11-29T22:31:27.550Z,8.75
2018-11-29T22:33:57.898Z,8.70
2018-11-29T22:36:27.863Z,8.73
2018-11-29T22:38:58.584Z,8.71
2018-11-29T22:41:28.577Z,8.74
2018-11-29T22:43:58.865Z,8.64
2018-11-29T22:46:28.889Z,8.71
2018-11-29T22:48:59.203Z,8.63
2018-11-29T22:51:28.942Z,8.72
2018-11-29T22:53:59.049Z,8.72
2018-11-29T22:56:28.912Z,8.61
2018-11-29T22:58:59.030Z,8.56
2018-11-29T23:01:29.334Z,8.58
2018-11-29T23:03:59.439Z,8.68
2018-11-29T23:06:29.513Z,8.72
2018-11-29T23:09:00.123Z,8.47
2018-11-29T23:11:30.907Z,8.46
2018-11-29T23:14:01.137Z,8.44
2018-11-29T23:16:31.102Z,8.41
2018-11-29T23:19:01.358Z,8.37
2018-11-29T23:21:31.168Z,8.25
2018-11-29T23:24:01.514Z,8.28
2018-11-29T23:26:31.340Z,8.33
2018-11-29T23:29:01.808Z,8.41
2018-11-29T23:31:31.662Z,8.25
2018-11-29T23:34:01.902Z,8.31
2018-11-29T23:36:31.638Z,8.24
2018-11-29T23:39:01.883Z,8.29
2018-11-29T23:41:32.737Z,8.29
2018-11-29T23:44:02.838Z,8.21
2018-11-29T23:46:33.442Z,8.28
2018-11-29T23:49:03.507Z,8.20
2018-11-29T23:51:33.573Z,8.26
2018-11-29T23:54:03.810Z,8.19
2018-11-29T23:56:33.740Z,8.09
2018-11-29T23:59:06.044Z,8.20
